Time;durP1;ratioP1;P1;durP2;ratioP2;P2;SDS_P1;SDS_P2;PMS_P1;PMS_P2;Temp;Humidity;BMP_temperature;BMP_pressure;BME280_temperature;BME280_humidity;BME280_pressure;Samples;Min_cycle;Max_cycle;Signal;HPM_P1;HPM_P2
2022/11/14 00:06:19;;;;;;;11.68;7.15;;;12.50;86.50;;;;;;10981486;32;20045;-73
2022/11/14 00:12:50;;;;;;;11.18;7.97;;;12.50;86.60;;;;;;10980037;32;20468;-73
2022/11/14 00:19:30;;;;;;;11.12;6.65;;;12.50;86.60;;;;;;10980980;32;20409;-73
2022/11/14 00:25:50;;;;;;;11.68;7.80;;;12.50;86.80;;;;;;11044529;27;20056;-73
2022/11/14 00:32:10;;;;;;;8.52;5.65;;;12.50;86.90;;;;;;11057082;32;20018;-73
2022/11/14 00:38:32;;;;;;;8.82;4.97;;;12.50;86.80;;;;;;11056727;32;20045;-73
2022/11/14 00:44:53;;;;;;;8.10;4.10;;;12.50;86.90;;;;;;11056950;32;20044;-73
2022/11/14 00:51:12;;;;;;;9.23;6.07;;;12.50;86.90;;;;;;11056636;32;20322;-73
2022/11/14 00:57:33;;;;;;;11.12;7.68;;;12.50;86.90;;;;;;11054191;32;20022;-73
2022/11/14 01:03:54;;;;;;;9.75;7.28;;;12.50;87.00;;;;;;11056208;32;20022;-73
2022/11/14 01:10:17;;;;;;;9.80;5.95;;;12.40;87.00;;;;;;11056079;32;20338;-73
2022/11/14 01:16:38;;;;;;;7.78;5.45;;;12.40;87.10;;;;;;11055939;32;20111;-73
2022/11/14 01:22:58;;;;;;;7.28;4.53;;;12.50;87.20;;;;;;11056003;32;20393;-74
2022/11/14 01:29:19;;;;;;;9.65;7.12;;;12.50;87.00;;;;;;11055597;32;20060;-74
2022/11/14 01:35:39;;;;;;;9.50;6.10;;;12.50;87.20;;;;;;11059707;32;20169;-73
2022/11/14 01:42:00;;;;;;;8.80;5.00;;;12.50;87.20;;;;;;11063412;32;20054;-73
2022/11/14 01:48:43;;;;;;;9.60;6.12;;;12.40;87.40;;;;;;11063336;32;20063;-74
2022/11/14 01:55:09;;;;;;;7.37;4.65;;;12.40;87.50;;;;;;11062901;32;20022;-73
2022/11/14 02:01:33;;;;;;;13.27;6.55;;;12.40;87.50;;;;;;11062797;32;20017;-73
2022/11/14 02:07:53;;;;;;;7.93;4.70;;;12.30;87.50;;;;;;11062323;32;20010;-73
2022/11/14 02:14:14;;;;;;;7.30;3.87;;;12.30;87.30;;;;;;11062203;32;20048;-73
2022/11/14 02:20:37;;;;;;;7.07;4.55;;;12.30;87.20;;;;;;11050148;32;20017;-74
2022/11/14 02:26:58;;;;;;;10.27;6.87;;;12.30;87.10;;;;;;11061728;32;20018;-73
2022/11/14 02:33:21;;;;;;;10.40;6.45;;;12.30;87.10;;;;;;11061394;32;20006;-74
2022/11/14 02:39:41;;;;;;;9.30;5.45;;;12.30;87.20;;;;;;11061335;32;20021;-74
2022/11/14 02:46:01;;;;;;;5.43;3.58;;;12.30;87.20;;;;;;11060519;32;20045;-74
2022/11/14 02:52:21;;;;;;;6.25;3.42;;;12.40;87.10;;;;;;11049011;32;20060;-74
2022/11/14 02:58:41;;;;;;;6.28;3.95;;;12.30;87.10;;;;;;11060566;32;20018;-74
2022/11/14 03:05:02;;;;;;;6.75;3.58;;;12.30;87.10;;;;;;11060393;32;20022;-74
2022/11/14 03:11:21;;;;;;;6.53;3.78;;;12.30;87.20;;;;;;11060263;32;20014;-74
2022/11/14 03:17:42;;;;;;;7.53;4.50;;;12.30;87.20;;;;;;11048287;32;20022;-74
2022/11/14 03:24:02;;;;;;;6.35;3.30;;;12.40;87.20;;;;;;11059679;32;20041;-74
2022/11/14 03:30:22;;;;;;;5.28;4.15;;;12.40;87.10;;;;;;11059419;32;20040;-73
2022/11/14 03:36:42;;;;;;;8.43;4.75;;;12.30;87.00;;;;;;11059087;32;20025;-73
2022/11/14 03:43:02;;;;;;;6.85;3.72;;;12.20;87.00;;;;;;11059102;32;20026;-74
2022/11/14 03:49:22;;;;;;;6.07;3.78;;;12.20;87.10;;;;;;11054365;32;20022;-74
2022/11/14 03:55:43;;;;;;;6.18;3.80;;;12.20;87.00;;;;;;11057695;32;20064;-74
2022/11/14 04:02:03;;;;;;;6.65;3.20;;;12.30;87.00;;;;;;11058231;32;20365;-74
2022/11/14 04:08:24;;;;;;;8.27;5.78;;;12.30;86.90;;;;;;11056245;32;20026;-74
2022/11/14 04:14:44;;;;;;;9.27;5.68;;;12.30;86.90;;;;;;11045946;32;20041;-74
2022/11/14 04:21:04;;;;;;;10.30;6.22;;;12.30;87.10;;;;;;11057469;32;20068;-74
2022/11/14 04:27:24;;;;;;;7.60;4.25;;;12.20;87.30;;;;;;11056972;32;20314;-74
2022/11/14 04:33:44;;;;;;;4.75;2.67;;;12.20;87.40;;;;;;11056979;32;20014;-74
2022/11/14 04:40:05;;;;;;;6.80;4.32;;;12.20;87.40;;;;;;11056905;32;20370;-74
2022/11/14 04:46:25;;;;;;;5.80;2.90;;;12.20;87.40;;;;;;11056626;32;20002;-74
2022/11/14 04:52:45;;;;;;;6.07;3.50;;;12.20;87.40;;;;;;11055996;32;20427;-74
2022/11/14 04:59:05;;;;;;;7.80;4.12;;;12.20;87.30;;;;;;11056315;32;20399;-74
2022/11/14 05:05:26;;;;;;;8.60;5.05;;;12.30;87.20;;;;;;11056049;32;20053;-74
2022/11/14 05:11:46;;;;;;;7.68;4.18;;;12.30;87.30;;;;;;11055873;32;20022;-74
2022/11/14 05:18:06;;;;;;;6.47;3.80;;;12.30;87.20;;;;;;11055898;32;20064;-74
2022/11/14 05:24:27;;;;;;;4.68;2.65;;;12.30;87.50;;;;;;11055802;32;20045;-74
2022/11/14 05:30:47;;;;;;;6.20;3.42;;;12.40;87.40;;;;;;11051365;32;20311;-74
2022/11/14 05:37:07;;;;;;;8.35;5.35;;;12.40;87.40;;;;;;11055586;32;20010;-75
2022/11/14 05:43:29;;;;;;;9.80;5.72;;;12.50;87.40;;;;;;11055463;32;20025;-74
2022/11/14 05:49:49;;;;;;;6.47;4.03;;;12.70;87.10;;;;;;11055355;32;20374;-74
2022/11/14 05:56:11;;;;;;;11.38;5.57;;;12.80;86.90;;;;;;11055236;32;20014;-75
2022/11/14 06:02:32;;;;;;;8.77;6.28;;;12.80;86.90;;;;;;11055111;32;20048;-74
2022/11/14 06:08:52;;;;;;;10.40;6.68;;;12.80;86.80;;;;;;11055611;32;20014;-74
2022/11/14 06:15:31;;;;;;;8.02;6.07;;;13.00;86.90;;;;;;11054902;32;20010;-74
2022/11/14 06:21:51;;;;;;;10.38;7.03;;;13.10;86.80;;;;;;11058553;32;20358;-75
2022/11/14 06:28:11;;;;;;;8.95;5.87;;;13.20;86.90;;;;;;11047903;32;20022;-74
2022/11/14 06:34:32;;;;;;;11.20;7.87;;;13.30;86.70;;;;;;11061429;32;20018;-74
2022/11/14 06:41:09;;;;;;;17.23;9.07;;;13.20;86.70;;;;;;11061199;32;20045;-75
2022/11/14 06:47:29;;;;;;;24.52;12.77;;;13.20;86.80;;;;;;11061013;32;20391;-74
2022/11/14 06:53:49;;;;;;;18.98;12.90;;;13.30;86.70;;;;;;11060670;32;20021;-74
2022/11/14 07:00:10;;;;;;;20.55;13.05;;;13.30;86.60;;;;;;11059750;32;20022;-74
2022/11/14 07:06:30;;;;;;;20.37;11.63;;;13.50;86.90;;;;;;11037963;32;20080;-74
2022/11/14 07:12:50;;;;;;;16.00;9.60;;;13.70;86.70;;;;;;11059333;32;20229;-74
2022/11/14 07:19:11;;;;;;;13.25;7.82;;;13.80;86.40;;;;;;11040447;32;20050;-75
2022/11/14 07:25:31;;;;;;;12.88;8.48;;;13.70;86.20;;;;;;11041786;32;20026;-74
2022/11/14 07:31:52;;;;;;;15.20;9.10;;;13.50;86.40;;;;;;11033837;32;20019;-74
2022/11/14 07:38:12;;;;;;;12.37;8.30;;;13.30;87.00;;;;;;11020778;32;20006;-74
2022/11/14 07:44:32;;;;;;;12.02;7.03;;;13.50;86.80;;;;;;11020465;32;20014;-74
2022/11/14 07:50:52;;;;;;;13.40;9.50;;;13.60;86.70;;;;;;11020341;32;20006;-74
2022/11/14 07:57:13;;;;;;;12.98;8.32;;;13.70;86.90;;;;;;11008722;32;20403;-73
2022/11/14 08:03:34;;;;;;;12.27;8.13;;;13.90;87.00;;;;;;11008227;32;20014;-74
2022/11/14 08:09:54;;;;;;;8.90;7.20;;;14.20;87.10;;;;;;11020830;32;20365;-74
2022/11/14 08:16:14;;;;;;;8.80;5.80;;;14.30;87.10;;;;;;11024483;32;20322;-74
2022/11/14 08:22:34;;;;;;;8.75;6.57;;;14.30;87.20;;;;;;10630171;26;12114111;-74
2022/11/14 08:28:54;;;;;;;8.35;5.32;;;14.30;87.30;;;;;;10898523;32;20224;-75
2022/11/14 08:35:16;;;;;;;8.45;5.43;;;14.00;87.50;;;;;;10899594;32;20027;-75
2022/11/14 08:41:36;;;;;;;7.95;5.05;;;13.80;87.90;;;;;;10879338;32;20344;-75
2022/11/14 08:47:56;;;;;;;7.68;4.00;;;13.90;88.10;;;;;;10913740;32;20299;-74
2022/11/14 08:54:17;;;;;;;7.12;4.78;;;13.90;88.20;;;;;;10942485;32;20019;-75
2022/11/14 09:00:40;;;;;;;5.22;3.72;;;13.90;88.60;;;;;;10942464;32;20042;-75
2022/11/14 09:07:00;;;;;;;7.07;4.35;;;13.90;88.50;;;;;;10942313;32;20007;-75
2022/11/14 09:13:23;;;;;;;7.95;6.10;;;13.90;88.50;;;;;;10941998;32;20073;-75
2022/11/14 09:19:44;;;;;;;6.72;4.00;;;13.90;88.30;;;;;;10943727;32;20018;-74
2022/11/14 09:26:06;;;;;;;5.15;3.60;;;13.80;88.60;;;;;;10941755;32;20057;-74
2022/11/14 09:32:26;;;;;;;5.07;3.20;;;13.90;89.00;;;;;;10941653;32;20378;-74
2022/11/14 09:38:46;;;;;;;6.87;4.03;;;14.10;88.90;;;;;;10931124;32;20019;-75
2022/11/14 09:45:11;;;;;;;4.82;3.42;;;14.20;88.90;;;;;;10935888;32;20105;-75
2022/11/14 09:51:58;;;;;;;3.85;2.47;;;14.20;89.00;;;;;;10937311;32;20379;-75
2022/11/14 09:58:20;;;;;;;6.53;3.28;;;14.20;88.90;;;;;;10929705;32;20019;-75
2022/11/14 10:05:00;;;;;;;5.32;3.78;;;14.30;88.90;;;;;;10931687;32;20316;-74
2022/11/14 10:11:42;;;;;;;6.55;4.12;;;14.30;88.70;;;;;;10944072;32;20418;-74
2022/11/14 10:18:28;;;;;;;6.75;4.30;;;14.20;88.50;;;;;;10939379;32;20030;-74
2022/11/14 10:25:16;;;;;;;5.37;3.65;;;14.10;88.80;;;;;;10947107;32;20351;-74
2022/11/14 10:31:39;;;;;;;7.18;3.12;;;14.30;88.80;;;;;;10943755;32;20019;-75
2022/11/14 10:38:21;;;;;;;5.78;3.28;;;14.40;88.60;;;;;;10947383;32;20023;-75
2022/11/14 10:44:56;;;;;;;2.78;1.87;;;14.60;88.40;;;;;;10935600;32;20149;-75
2022/11/14 10:51:36;;;;;;;4.72;2.70;;;14.60;88.40;;;;;;10946923;32;20383;-75
2022/11/14 10:57:57;;;;;;;4.53;2.60;;;14.60;88.60;;;;;;10946633;32;20023;-75
2022/11/14 11:04:45;;;;;;;4.53;2.47;;;14.60;88.60;;;;;;10946451;32;20046;-75
2022/11/14 11:11:31;;;;;;;5.18;3.03;;;14.60;88.70;;;;;;10946384;32;20023;-75
2022/11/14 11:18:25;;;;;;;4.85;2.78;;;14.70;88.70;;;;;;10946111;32;20054;-75
2022/11/14 11:25:00;;;;;;;4.55;2.72;;;14.70;88.60;;;;;;10945748;32;20050;-75
2022/11/14 11:31:21;;;;;;;4.50;2.65;;;14.80;88.60;;;;;;10932602;32;20041;-76
2022/11/14 11:37:43;;;;;;;6.57;4.00;;;14.90;88.40;;;;;;10945395;32;20054;-76
2022/11/14 11:44:09;;;;;;;5.85;3.67;;;14.90;88.30;;;;;;10945154;32;20387;-75
2022/11/14 11:50:29;;;;;;;6.62;4.55;;;15.00;88.40;;;;;;10934141;32;20054;-74
2022/11/14 11:56:58;;;;;;;6.12;4.00;;;15.00;88.30;;;;;;10944501;32;20375;-74
2022/11/14 12:03:23;;;;;;;4.12;3.15;;;15.10;88.30;;;;;;10944342;32;20014;-74
2022/11/14 12:09:43;;;;;;;4.90;2.87;;;15.10;88.20;;;;;;10944096;32;20003;-74
2022/11/14 12:23:54;;;;;;;5.22;3.40;;;15.20;88.30;;;;;;10943268;32;20015;-74
2022/11/14 12:30:20;;;;;;;7.62;4.50;;;15.30;88.10;;;;;;10943274;32;20019;-74
2022/11/14 12:36:47;;;;;;;5.30;3.40;;;15.40;87.90;;;;;;10943493;32;20084;-74
2022/11/14 12:43:34;;;;;;;4.22;2.53;;;15.50;88.00;;;;;;10943154;32;20371;-74
2022/11/14 12:50:38;;;;;;;5.25;3.20;;;15.60;87.90;;;;;;10932072;32;20358;-74
2022/11/14 12:57:02;;;;;;;4.70;2.80;;;15.50;88.00;;;;;;10942481;32;20018;-75
2022/11/14 13:03:53;;;;;;;4.47;2.75;;;15.50;88.20;;;;;;10942526;32;20402;-74
2022/11/14 13:10:29;;;;;;;3.65;2.00;;;15.50;88.10;;;;;;10938160;32;20328;-74
2022/11/14 13:23:39;;;;;;;;;;;15.60;88.00;;;;;;10942216;32;20046;-74
2022/11/14 13:30:06;;;;;;;3.85;3.03;;;15.60;88.10;;;;;;10910057;32;20253;-74
2022/11/14 13:36:36;;;;;;;5.18;3.47;;;15.60;88.20;;;;;;10916185;32;20387;-74
2022/11/14 13:43:35;;;;;;;5.47;3.28;;;15.60;88.10;;;;;;10913082;32;20027;-74
2022/11/14 13:50:06;;;;;;;3.80;2.42;;;15.70;88.10;;;;;;10916249;32;20020;-74
2022/11/14 13:56:59;;;;;;;;;;;15.70;88.10;;;;;;10912998;32;20049;-75
2022/11/14 14:03:49;;;;;;;4.22;3.20;;;15.70;88.00;;;;;;10915761;32;19926;-76
2022/11/14 14:10:47;;;;;;;5.60;3.67;;;15.60;87.90;;;;;;10801208;32;20038;-74
2022/11/14 14:17:34;;;;;;;4.30;3.40;;;15.50;88.10;;;;;;10726936;33;20067;-74
2022/11/14 14:24:17;;;;;;;2.78;2.40;;;15.50;88.10;;;;;;10724887;33;20377;-74
2022/11/14 14:30:38;;;;;;;4.43;2.80;;;15.50;88.00;;;;;;10689704;33;20051;-74
2022/11/14 14:36:57;;;;;;;5.55;3.53;;;15.50;88.10;;;;;;10690984;33;20026;-74
2022/11/14 14:43:33;;;;;;;4.62;3.12;;;15.50;88.00;;;;;;10650436;33;20048;-74
2022/11/14 14:49:54;;;;;;;3.95;2.78;;;15.50;88.00;;;;;;10690110;32;20039;-74
2022/11/14 14:56:19;;;;;;;5.03;2.62;;;15.50;88.00;;;;;;10830160;32;20070;-73
2022/11/14 15:02:42;;;;;;;6.40;4.32;;;15.50;88.00;;;;;;10839154;32;20043;-74
2022/11/14 15:09:09;;;;;;;4.90;3.15;;;15.50;88.00;;;;;;10949607;32;20080;-74
2022/11/14 15:15:32;;;;;;;5.07;3.80;;;15.50;88.10;;;;;;10972616;32;20395;-73
2022/11/14 15:22:05;;;;;;;5.03;3.60;;;15.50;88.10;;;;;;10967858;32;20023;-73
2022/11/14 15:28:26;;;;;;;5.62;3.87;;;15.30;88.00;;;;;;10978673;32;20054;-73
2022/11/14 15:35:13;;;;;;;5.20;3.55;;;15.30;88.30;;;;;;10983115;32;20018;-74
2022/11/14 15:42:13;;;;;;;17.73;10.77;;;15.20;88.20;;;;;;10982654;32;20084;-74
2022/11/14 15:48:39;;;;;;;14.73;8.43;;;15.20;88.00;;;;;;10982432;32;20019;-74
2022/11/14 15:55:07;;;;;;;12.80;8.68;;;15.20;88.00;;;;;;10940588;32;20054;-74
2022/11/14 16:01:28;;;;;;;18.70;11.12;;;15.20;87.80;;;;;;10944483;32;20019;-74
2022/11/14 16:07:54;;;;;;;19.15;12.15;;;15.20;87.70;;;;;;10944085;32;20015;-74
2022/11/14 16:14:14;;;;;;;14.32;9.85;;;15.00;87.70;;;;;;10932584;32;20047;-74
2022/11/14 16:20:38;;;;;;;18.45;13.35;;;15.00;87.90;;;;;;10952333;27;20030;-74
2022/11/14 16:26:58;;;;;;;18.62;12.32;;;15.00;87.90;;;;;;10981143;32;20018;-74
2022/11/14 16:33:18;;;;;;;13.07;10.93;;;15.00;87.90;;;;;;10981027;32;20015;-74
2022/11/14 16:39:38;;;;;;;13.77;9.82;;;15.20;87.80;;;;;;10980684;32;20014;-74
2022/11/14 16:46:06;;;;;;;10.85;8.20;;;15.10;87.70;;;;;;10980534;32;20342;-75
2022/11/14 16:52:26;;;;;;;13.62;9.45;;;15.00;87.70;;;;;;10975794;32;20394;-74
2022/11/14 16:58:54;;;;;;;12.98;9.63;;;14.80;88.00;;;;;;10979621;32;20014;-74
2022/11/14 17:05:14;;;;;;;14.65;11.52;;;14.90;88.10;;;;;;10975858;32;20045;-74
2022/11/14 17:11:34;;;;;;;16.83;11.45;;;15.00;87.80;;;;;;10977410;32;20007;-74
2022/11/14 17:18:05;;;;;;;12.55;10.88;;;15.00;87.80;;;;;;10969319;32;20018;-75
2022/11/14 17:24:26;;;;;;;14.73;10.40;;;15.00;87.60;;;;;;10979332;32;20014;-75
2022/11/14 17:30:46;;;;;;;10.05;6.75;;;14.80;87.80;;;;;;10979401;32;20418;-75
2022/11/14 17:37:06;;;;;;;9.75;7.45;;;14.70;87.90;;;;;;10981064;32;20037;-75
2022/11/14 17:43:28;;;;;;;13.20;11.07;;;14.80;87.90;;;;;;10979653;32;20022;-74
2022/11/14 17:49:53;;;;;;;10.98;7.68;;;14.80;87.80;;;;;;10976788;32;20014;-75
2022/11/14 17:56:22;;;;;;;12.02;9.55;;;15.00;87.60;;;;;;10951218;32;20082;-75
2022/11/14 18:02:42;;;;;;;12.82;8.63;;;14.90;87.40;;;;;;10945753;32;20011;-74
2022/11/14 18:09:22;;;;;;;10.97;8.10;;;14.90;87.60;;;;;;10942309;32;20042;-75
2022/11/14 18:15:41;;;;;;;14.10;10.10;;;14.90;87.70;;;;;;10946623;32;20053;-75
2022/11/14 18:22:03;;;;;;;13.30;7.62;;;15.10;87.60;;;;;;10984885;32;20045;-75
2022/11/14 18:28:23;;;;;;;10.75;7.87;;;15.20;87.40;;;;;;10985596;32;20065;-75
2022/11/14 18:34:43;;;;;;;10.05;7.45;;;15.20;87.20;;;;;;10985182;32;20080;-74
2022/11/14 18:41:17;;;;;;;13.13;9.95;;;15.20;87.10;;;;;;10984835;32;20011;-75
2022/11/14 18:47:38;;;;;;;14.25;10.73;;;15.10;87.10;;;;;;10984870;32;20050;-75
2022/11/14 18:53:58;;;;;;;11.18;8.27;;;15.10;87.10;;;;;;10983668;32;20025;-75
2022/11/14 19:00:18;;;;;;;13.65;10.98;;;15.20;87.10;;;;;;10984276;32;20383;-75
2022/11/14 19:06:39;;;;;;;10.70;8.38;;;15.10;87.00;;;;;;10985941;32;20049;-75
2022/11/14 19:13:17;;;;;;;11.52;8.48;;;14.90;87.30;;;;;;10984004;32;20289;-75
2022/11/14 19:19:37;;;;;;;14.45;9.98;;;14.80;87.50;;;;;;10972368;32;20383;-75
2022/11/14 19:25:59;;;;;;;11.98;10.02;;;14.80;87.50;;;;;;10983267;32;20010;-75
2022/11/14 19:32:19;;;;;;;11.82;9.88;;;14.80;87.50;;;;;;10983367;32;20003;-75
2022/11/14 19:38:41;;;;;;;14.27;10.75;;;14.90;87.70;;;;;;10950241;32;20019;-75
2022/11/14 19:45:02;;;;;;;10.93;9.38;;;15.10;87.70;;;;;;10945208;32;20387;-75
2022/11/14 19:51:23;;;;;;;10.75;8.48;;;14.90;87.40;;;;;;10943744;32;20015;-75
2022/11/14 19:57:43;;;;;;;12.63;10.02;;;14.80;87.60;;;;;;10945568;32;20472;-75
2022/11/14 20:04:06;;;;;;;12.45;9.98;;;14.80;87.60;;;;;;10944448;32;19999;-75
2022/11/14 20:10:26;;;;;;;11.48;9.07;;;14.80;87.40;;;;;;10944174;32;20026;-75
2022/11/14 20:16:48;;;;;;;18.42;11.43;;;14.80;87.20;;;;;;10944053;32;20372;-75
2022/11/14 20:23:09;;;;;;;13.48;8.40;;;14.70;87.20;;;;;;10944308;32;20019;-75
2022/11/14 20:29:29;;;;;;;11.98;8.52;;;14.70;87.20;;;;;;10930042;32;20050;-75
2022/11/14 20:36:11;;;;;;;10.52;7.55;;;14.60;87.20;;;;;;10943633;32;20387;-75
2022/11/14 20:42:31;;;;;;;10.85;8.02;;;14.30;87.50;;;;;;10942749;32;20018;-75
2022/11/14 20:49:10;;;;;;;12.88;10.02;;;14.20;87.70;;;;;;10938605;32;20057;-75
2022/11/14 20:55:30;;;;;;;10.85;7.80;;;14.30;87.60;;;;;;10942886;32;20339;-75
2022/11/14 21:01:51;;;;;;;13.60;9.48;;;14.10;87.40;;;;;;10942559;32;20294;-75
2022/11/14 21:08:13;;;;;;;13.15;8.27;;;13.90;87.60;;;;;;10942505;32;20383;-75
2022/11/14 21:14:33;;;;;;;14.30;9.93;;;13.80;87.80;;;;;;10938901;32;20042;-75
2022/11/14 21:21:23;;;;;;;13.45;10.25;;;14.00;87.60;;;;;;10941801;32;20358;-75
2022/11/14 21:27:44;;;;;;;13.55;9.85;;;14.00;87.30;;;;;;10789948;33;20051;-75
2022/11/14 21:34:16;;;;;;;14.82;9.95;;;14.00;87.30;;;;;;10785500;33;20032;-75
2022/11/14 21:40:37;;;;;;;13.38;8.80;;;13.80;87.40;;;;;;10788727;33;20029;-75
2022/11/14 21:46:57;;;;;;;16.83;11.48;;;13.80;87.50;;;;;;10788728;33;20050;-75
2022/11/14 21:53:18;;;;;;;13.18;9.32;;;13.70;87.40;;;;;;10794693;33;20024;-76
2022/11/14 21:59:39;;;;;;;13.95;11.07;;;13.70;87.50;;;;;;10812382;32;20015;-76
2022/11/14 22:06:01;;;;;;;10.63;8.07;;;13.60;87.50;;;;;;10963844;32;20057;-75
2022/11/14 22:12:21;;;;;;;13.30;9.70;;;13.70;87.40;;;;;;10986432;32;20015;-73
2022/11/14 22:19:11;;;;;;;10.00;7.62;;;13.70;87.30;;;;;;10987401;32;20297;-74
2022/11/14 22:25:32;;;;;;;11.23;7.07;;;13.50;87.40;;;;;;10986074;32;20015;-74
2022/11/14 22:31:54;;;;;;;11.05;9.00;;;13.30;87.60;;;;;;10985626;32;20053;-74
2022/11/14 22:38:14;;;;;;;14.13;8.95;;;13.20;87.70;;;;;;10985404;32;20171;-73
2022/11/14 22:44:34;;;;;;;11.43;8.18;;;13.30;87.70;;;;;;10985259;32;20068;-74
2022/11/14 22:51:07;;;;;;;11.63;8.07;;;13.50;87.40;;;;;;10973545;32;20015;-74
2022/11/14 22:57:28;;;;;;;13.23;9.25;;;13.30;87.40;;;;;;10984764;32;20007;-74
2022/11/14 23:03:53;;;;;;;14.80;11.90;;;13.10;87.50;;;;;;10983815;32;20045;-75
2022/11/14 23:10:13;;;;;;;15.93;11.65;;;12.90;87.50;;;;;;10984104;32;20003;-76
2022/11/14 23:16:34;;;;;;;10.48;8.38;;;12.80;87.60;;;;;;10979814;32;20038;-75
2022/11/14 23:22:55;;;;;;;13.93;10.15;;;12.80;87.60;;;;;;10972070;32;20383;-76
2022/11/14 23:29:16;;;;;;;13.93;9.45;;;12.70;87.60;;;;;;10983519;32;20383;-75
2022/11/14 23:35:36;;;;;;;18.23;10.52;;;12.60;87.50;;;;;;10983243;32;20014;-75
2022/11/14 23:41:57;;;;;;;17.75;13.20;;;12.70;87.50;;;;;;10980584;32;20019;-75
2022/11/14 23:48:19;;;;;;;12.70;9.07;;;12.70;87.60;;;;;;10971180;32;20019;-75
2022/11/14 23:54:39;;;;;;;10.40;7.60;;;12.80;87.50;;;;;;10982410;32;20041;-75
